Time;durP1;ratioP1;P1;durP2;ratioP2;P2;SDS_P1;SDS_P2;PMS_P1;PMS_P2;Temp;Humidity;BMP_temperature;BMP_pressure;BME280_temperature;BME280_humidity;BME280_pressure;Samples;Min_cycle;Max_cycle;Signal;HPM_P1;HPM_P2
2023/06/25 00:00:16;;;;;;;;;;;;;;;;;;5053186;28;20441;-71
2023/06/25 00:02:42;;;;;;;;;;;;;;;;;;5053187;28;19956;-71
2023/06/25 00:05:08;;;;;;;;;;;;;;;;;;5053060;28;19964;-71
2023/06/25 00:07:35;;;;;;;;;;;;;;;;;;5053115;28;20008;-71
2023/06/25 00:10:01;;;;;;;;;;;;;;;;;;5053363;28;19959;-71
2023/06/25 00:12:27;;;;;;;;;;;;;;;;;;5056573;28;20537;-71
2023/06/25 00:14:52;;;;;;;;;;;;;;;;;;5056817;28;19963;-72
2023/06/25 00:17:18;;;;;;;;;;;;;;;;;;5056795;28;20339;-71
2023/06/25 00:19:44;;;;;;;;;;;;;;;;;;5057018;28;19978;-71
2023/06/25 00:22:11;;;;;;;;;;;;;;;;;;5056676;28;19960;-72
2023/06/25 00:24:37;;;;;;;;;;;;;;;;;;5056661;28;20046;-71
2023/06/25 00:27:02;;;;;;;;;;;;;;;;;;5056523;28;20020;-71
2023/06/25 00:29:28;;;;;;;;;;;;;;;;;;5056554;28;20407;-71
2023/06/25 00:31:54;;;;;;;;;;;;;;;;;;5056474;28;19954;-72
2023/06/25 00:34:20;;;;;;;;;;;;;;;;;;5056660;28;20018;-71
2023/06/25 00:36:51;;;;;;;;;;;;;;;;;;5056384;28;19991;-71
2023/06/25 00:39:17;;;;;;;;;;;;;;;;;;5057012;28;19954;-71
2023/06/25 00:41:43;;;;;;;;;;;;;;;;;;5056149;28;19963;-71
2023/06/25 00:44:09;;;;;;;;;;;;;;;;;;5056843;28;20406;-71
2023/06/25 00:46:35;;;;;;;;;;;;;;;;;;5056174;28;19980;-71
2023/06/25 00:49:05;;;;;;;;;;;;;;;;;;5056770;28;20327;-72
2023/06/25 00:51:31;;;;;;;;;;;;;;;;;;5056163;28;19963;-71
2023/06/25 00:53:57;;;;;;;;;;;;;;;;;;5056121;28;19956;-71
2023/06/25 00:56:29;;;;;;;;;;;;;;;;;;5054754;28;19958;-70
2023/06/25 00:58:57;;;;;;;;;;;;;;;;;;5056613;28;20316;-71
2023/06/25 01:01:26;;;;;;;;;;;;;;;;;;5054731;28;19982;-70
2023/06/25 01:03:54;;;;;;;;;;;;;;;;;;5056510;28;19988;-71
2023/06/25 01:06:20;;;;;;;;;;;;;;;;;;5055825;28;20028;-72
2023/06/25 01:08:50;;;;;;;;;;;;;;;;;;5055848;28;19955;-71
2023/06/25 01:11:16;;;;;;;;;;;;;;;;;;5056346;28;19955;-71
2023/06/25 01:13:43;;;;;;;;;;;;;;;;;;5056286;28;19963;-71
2023/06/25 01:16:09;;;;;;;;;;;;;;;;;;5055707;28;19956;-71
2023/06/25 01:18:39;;;;;;;;;;;;;;;;;;5055962;28;19978;-70
2023/06/25 01:21:05;;;;;;;;;;;;;;;;;;5055922;28;19954;-71
2023/06/25 01:23:31;;;;;;;;;;;;;;;;;;5054688;28;19959;-70
2023/06/25 01:25:56;;;;;;;;;;;;;;;;;;5055460;28;19976;-71
2023/06/25 01:28:22;;;;;;;;;;;;;;;;;;5055728;28;19955;-72
2023/06/25 01:30:51;;;;;;;;;;;;;;;;;;5055442;28;19956;-71
2023/06/25 01:33:19;;;;;;;;;;;;;;;;;;5055407;28;20022;-71
2023/06/25 01:35:45;;;;;;;;;;;;;;;;;;5054001;28;20055;-70
2023/06/25 01:38:10;;;;;;;;;;;;;;;;;;5055563;28;20383;-70
2023/06/25 01:40:36;;;;;;;;;;;;;;;;;;5055257;28;19995;-70
2023/06/25 01:43:02;;;;;;;;;;;;;;;;;;5054977;28;19995;-71
2023/06/25 01:45:28;;;;;;;;;;;;;;;;;;5055664;28;20466;-70
2023/06/25 01:47:54;;;;;;;;;;;;;;;;;;5055404;28;19955;-70
2023/06/25 01:50:21;;;;;;;;;;;;;;;;;;5055305;28;20365;-70
2023/06/25 01:52:47;;;;;;;;;;;;;;;;;;5053462;28;20009;-71
2023/06/25 01:55:13;;;;;;;;;;;;;;;;;;5055595;28;20339;-71
2023/06/25 01:57:39;;;;;;;;;;;;;;;;;;5055157;28;20038;-70
2023/06/25 02:00:06;;;;;;;;;;;;;;;;;;5054879;28;19978;-71
2023/06/25 02:02:32;;;;;;;;;;;;;;;;;;5055347;28;19955;-70
2023/06/25 02:04:58;;;;;;;;;;;;;;;;;;5054763;28;20322;-72
2023/06/25 02:07:24;;;;;;;;;;;;;;;;;;5054629;28;19983;-70
2023/06/25 02:09:50;;;;;;;;;;;;;;;;;;5054963;28;19960;-71
2023/06/25 02:12:16;;;;;;;;;;;;;;;;;;5055115;28;19956;-71
2023/06/25 02:14:42;;;;;;;;;;;;;;;;;;5055092;28;20024;-71
2023/06/25 02:17:08;;;;;;;;;;;;;;;;;;5054549;28;19955;-70
2023/06/25 02:19:34;;;;;;;;;;;;;;;;;;5055092;28;19989;-71
2023/06/25 02:21:59;;;;;;;;;;;;;;;;;;5054409;28;19966;-71
2023/06/25 02:24:26;;;;;;;;;;;;;;;;;;5054704;28;20042;-71
2023/06/25 02:26:52;;;;;;;;;;;;;;;;;;5054559;28;19974;-71
2023/06/25 02:29:18;;;;;;;;;;;;;;;;;;5054312;28;19955;-70
2023/06/25 02:31:44;;;;;;;;;;;;;;;;;;5054860;28;19956;-71
2023/06/25 02:34:09;;;;;;;;;;;;;;;;;;5054047;28;19978;-71
2023/06/25 02:36:35;;;;;;;;;;;;;;;;;;5054155;28;20047;-71
2023/06/25 02:39:01;;;;;;;;;;;;;;;;;;5054453;28;19955;-70
2023/06/25 02:41:27;;;;;;;;;;;;;;;;;;5054126;28;19962;-70
2023/06/25 02:43:53;;;;;;;;;;;;;;;;;;5053720;28;20053;-71
2023/06/25 02:46:19;;;;;;;;;;;;;;;;;;5054513;28;19982;-71
2023/06/25 02:48:45;;;;;;;;;;;;;;;;;;5053995;28;20038;-70
2023/06/25 02:51:11;;;;;;;;;;;;;;;;;;5054191;28;20046;-71
2023/06/25 02:53:37;;;;;;;;;;;;;;;;;;5054243;28;19961;-71
2023/06/25 02:56:02;;;;;;;;;;;;;;;;;;5053924;28;20426;-70
2023/06/25 02:58:28;;;;;;;;;;;;;;;;;;5054121;28;19956;-71
2023/06/25 03:00:54;;;;;;;;;;;;;;;;;;5053781;28;20411;-71
2023/06/25 03:03:20;;;;;;;;;;;;;;;;;;5054333;28;20089;-70
2023/06/25 03:05:46;;;;;;;;;;;;;;;;;;5053970;28;19978;-71
2023/06/25 03:08:12;;;;;;;;;;;;;;;;;;5052444;28;20354;-71
2023/06/25 03:10:38;;;;;;;;;;;;;;;;;;5054225;28;19954;-71
2023/06/25 03:13:04;;;;;;;;;;;;;;;;;;5054227;28;19979;-71
2023/06/25 03:15:30;;;;;;;;;;;;;;;;;;5054252;28;19960;-71
2023/06/25 03:17:56;;;;;;;;;;;;;;;;;;5053621;28;20418;-71
2023/06/25 03:20:22;;;;;;;;;;;;;;;;;;5053638;28;19959;-71
2023/06/25 03:22:48;;;;;;;;;;;;;;;;;;5054116;28;20380;-71
2023/06/25 03:25:14;;;;;;;;;;;;;;;;;;5053761;28;20373;-71
2023/06/25 03:27:40;;;;;;;;;;;;;;;;;;5053761;28;20047;-71
2023/06/25 03:30:06;;;;;;;;;;;;;;;;;;5053492;28;20045;-71
2023/06/25 03:32:32;;;;;;;;;;;;;;;;;;5053774;28;19962;-71
2023/06/25 03:34:59;;;;;;;;;;;;;;;;;;5053356;28;20092;-71
2023/06/25 03:37:24;;;;;;;;;;;;;;;;;;5053445;28;20009;-70
2023/06/25 03:39:51;;;;;;;;;;;;;;;;;;5053658;28;20053;-71
2023/06/25 03:42:17;;;;;;;;;;;;;;;;;;5051758;28;19993;-71
2023/06/25 03:44:43;;;;;;;;;;;;;;;;;;5053361;28;19961;-71
2023/06/25 03:47:09;;;;;;;;;;;;;;;;;;5056249;28;19982;-72
2023/06/25 03:49:35;;;;;;;;;;;;;;;;;;5057362;28;20069;-71
2023/06/25 03:52:01;;;;;;;;;;;;;;;;;;5057847;28;19995;-71
2023/06/25 03:54:27;;;;;;;;;;;;;;;;;;5057584;28;19955;-71
2023/06/25 03:56:52;;;;;;;;;;;;;;;;;;5057215;28;20420;-71
2023/06/25 03:59:18;;;;;;;;;;;;;;;;;;5057152;28;19956;-71
2023/06/25 04:01:44;;;;;;;;;;;;;;;;;;5055608;28;20439;-71
2023/06/25 04:04:10;;;;;;;;;;;;;;;;;;5057123;28;19960;-71
2023/06/25 04:06:36;;;;;;;;;;;;;;;;;;5057219;28;19982;-71
2023/06/25 04:09:03;;;;;;;;;;;;;;;;;;5056992;28;20422;-71
2023/06/25 04:11:29;;;;;;;;;;;;;;;;;;5056953;28;19997;-71
2023/06/25 04:13:55;;;;;;;;;;;;;;;;;;5057419;28;19978;-71
2023/06/25 04:16:21;;;;;;;;;;;;;;;;;;5057418;28;20412;-71
2023/06/25 04:18:47;;;;;;;;;;;;;;;;;;5057110;28;20420;-71
2023/06/25 04:21:13;;;;;;;;;;;;;;;;;;5056738;28;19955;-71
2023/06/25 04:23:39;;;;;;;;;;;;;;;;;;5056735;28;19956;-70
2023/06/25 04:26:05;;;;;;;;;;;;;;;;;;5056634;28;19976;-70
2023/06/25 04:28:31;;;;;;;;;;;;;;;;;;5056893;28;19982;-72
2023/06/25 04:30:57;;;;;;;;;;;;;;;;;;5056611;28;19955;-71
2023/06/25 04:33:23;;;;;;;;;;;;;;;;;;5056534;28;20411;-70
2023/06/25 04:35:49;;;;;;;;;;;;;;;;;;5056422;28;19972;-71
2023/06/25 04:38:15;;;;;;;;;;;;;;;;;;5056723;28;19956;-71
2023/06/25 04:40:41;;;;;;;;;;;;;;;;;;5056401;28;20010;-70
2023/06/25 04:43:07;;;;;;;;;;;;;;;;;;5056274;28;19996;-71
2023/06/25 04:45:33;;;;;;;;;;;;;;;;;;5056257;28;19980;-70
2023/06/25 04:47:58;;;;;;;;;;;;;;;;;;5056550;28;19963;-71
2023/06/25 04:50:25;;;;;;;;;;;;;;;;;;5056227;28;19963;-71
2023/06/25 04:52:51;;;;;;;;;;;;;;;;;;5054734;28;19966;-71
2023/06/25 04:55:17;;;;;;;;;;;;;;;;;;5056161;28;19961;-71
2023/06/25 04:57:43;;;;;;;;;;;;;;;;;;5055122;28;20037;-70
2023/06/25 05:00:09;;;;;;;;;;;;;;;;;;5056036;28;20009;-71
2023/06/25 05:02:35;;;;;;;;;;;;;;;;;;5054484;28;19958;-71
2023/06/25 05:05:01;;;;;;;;;;;;;;;;;;5055935;28;19960;-71
2023/06/25 05:07:27;;;;;;;;;;;;;;;;;;5055834;28;20097;-71
2023/06/25 05:09:53;;;;;;;;;;;;;;;;;;5056434;28;20449;-72
2023/06/25 05:12:19;;;;;;;;;;;;;;;;;;5056070;28;19962;-72
2023/06/25 05:14:45;;;;;;;;;;;;;;;;;;5056283;28;20430;-70
2023/06/25 05:17:10;;;;;;;;;;;;;;;;;;5055751;28;20001;-70
2023/06/25 05:19:36;;;;;;;;;;;;;;;;;;5055659;28;20404;-71
2023/06/25 05:22:04;;;;;;;;;;;;;;;;;;5055594;28;19961;-71
2023/06/25 05:24:30;;;;;;;;;;;;;;;;;;5056112;28;20412;-71
2023/06/25 05:26:56;;;;;;;;;;;;;;;;;;5055494;28;19983;-71
2023/06/25 05:29:22;;;;;;;;;;;;;;;;;;5055756;28;19979;-72
2023/06/25 05:31:48;;;;;;;;;;;;;;;;;;5055749;28;19959;-71
2023/06/25 05:34:14;;;;;;;;;;;;;;;;;;5055337;28;19972;-72
2023/06/25 05:36:40;;;;;;;;;;;;;;;;;;5055340;28;20332;-71
2023/06/25 05:39:07;;;;;;;;;;;;;;;;;;5055302;28;19963;-71
2023/06/25 05:41:33;;;;;;;;;;;;;;;;;;5055567;28;19963;-71
2023/06/25 05:43:59;;;;;;;;;;;;;;;;;;5054819;28;20070;-71
2023/06/25 05:46:24;;;;;;;;;;;;;;;;;;5055079;28;20055;-70
2023/06/25 05:48:50;;;;;;;;;;;;;;;;;;5055633;28;20407;-71
2023/06/25 05:51:16;;;;;;;;;;;;;;;;;;5055049;28;19956;-70
2023/06/25 05:53:43;;;;;;;;;;;;;;;;;;5055564;28;20419;-71
2023/06/25 05:56:09;;;;;;;;;;;;;;;;;;5053698;28;19960;-70
2023/06/25 05:58:35;;;;;;;;;;;;;;;;;;5055181;28;19963;-71
2023/06/25 06:01:01;;;;;;;;;;;;;;;;;;5055134;28;19959;-72
2023/06/25 06:03:26;;;;;;;;;;;;;;;;;;5055380;28;20064;-72
2023/06/25 06:05:52;;;;;;;;;;;;;;;;;;5054678;28;19997;-71
2023/06/25 06:08:18;;;;;;;;;;;;;;;;;;5054597;28;20039;-71
2023/06/25 06:10:44;;;;;;;;;;;;;;;;;;5054425;28;19963;-71
2023/06/25 06:13:10;;;;;;;;;;;;;;;;;;5055456;28;20046;-72
2023/06/25 06:15:36;;;;;;;;;;;;;;;;;;5054584;28;20414;-71
2023/06/25 06:18:02;;;;;;;;;;;;;;;;;;5054538;28;20042;-70
2023/06/25 06:20:28;;;;;;;;;;;;;;;;;;5054775;28;19978;-71
2023/06/25 06:22:54;;;;;;;;;;;;;;;;;;5054723;28;20388;-70
2023/06/25 06:25:20;;;;;;;;;;;;;;;;;;5054926;28;19954;-70
2023/06/25 06:27:45;;;;;;;;;;;;;;;;;;5054355;28;19955;-72
2023/06/25 06:30:11;;;;;;;;;;;;;;;;;;5054337;28;19955;-72
2023/06/25 06:32:37;;;;;;;;;;;;;;;;;;5054286;28;20468;-71
2023/06/25 06:35:03;;;;;;;;;;;;;;;;;;5054169;28;19977;-69
2023/06/25 06:37:29;;;;;;;;;;;;;;;;;;5052906;28;20055;-70
2023/06/25 06:39:56;;;;;;;;;;;;;;;;;;5054179;28;20002;-69
2023/06/25 06:42:22;;;;;;;;;;;;;;;;;;5052391;28;20382;-70
2023/06/25 06:44:48;;;;;;;;;;;;;;;;;;5054095;28;19958;-70
2023/06/25 06:47:14;;;;;;;;;;;;;;;;;;5054266;28;19974;-69
2023/06/25 06:49:39;;;;;;;;;;;;;;;;;;5054046;28;20454;-69
2023/06/25 06:52:07;;;;;;;;;;;;;;;;;;5053544;28;20205;-69
2023/06/25 06:54:33;;;;;;;;;;;;;;;;;;5053907;28;20370;-69
2023/06/25 06:56:59;;;;;;;;;;;;;;;;;;5053901;28;19954;-69
2023/06/25 06:59:25;;;;;;;;;;;;;;;;;;5054120;28;19964;-69
2023/06/25 07:01:51;;;;;;;;;;;;;;;;;;5053846;28;20443;-69
2023/06/25 07:04:17;;;;;;;;;;;;;;;;;;5054067;28;19958;-70
2023/06/25 07:06:42;;;;;;;;;;;;;;;;;;5053928;28;20396;-70
2023/06/25 07:09:08;;;;;;;;;;;;;;;;;;5054278;28;19958;-69
2023/06/25 07:11:34;;;;;;;;;;;;;;;;;;5053680;28;20335;-70
2023/06/25 07:14:00;;;;;;;;;;;;;;;;;;5054155;28;20046;-70
2023/06/25 07:16:26;;;;;;;;;;;;;;;;;;5053911;28;20415;-69
2023/06/25 07:18:53;;;;;;;;;;;;;;;;;;5053611;28;19960;-69
2023/06/25 07:21:19;;;;;;;;;;;;;;;;;;5053090;28;19954;-70
2023/06/25 07:23:45;;;;;;;;;;;;;;;;;;5053539;28;20005;-70
2023/06/25 07:26:11;;;;;;;;;;;;;;;;;;5053470;28;20407;-69
2023/06/25 07:28:37;;;;;;;;;;;;;;;;;;5053531;28;19955;-69
2023/06/25 07:31:03;;;;;;;;;;;;;;;;;;5053785;28;20044;-71
2023/06/25 07:33:29;;;;;;;;;;;;;;;;;;5053474;28;19990;-69
2023/06/25 07:35:54;;;;;;;;;;;;;;;;;;5053672;28;19971;-69
2023/06/25 07:38:20;;;;;;;;;;;;;;;;;;5053398;28;19959;-71
2023/06/25 07:40:46;;;;;;;;;;;;;;;;;;5053975;28;19961;-69
2023/06/25 07:43:12;;;;;;;;;;;;;;;;;;5053188;28;19998;-69
2023/06/25 07:45:38;;;;;;;;;;;;;;;;;;5053277;28;20096;-69
2023/06/25 07:48:04;;;;;;;;;;;;;;;;;;5053594;28;19954;-70
2023/06/25 07:50:30;;;;;;;;;;;;;;;;;;5053309;28;20315;-71
2023/06/25 07:52:56;;;;;;;;;;;;;;;;;;5053287;28;19953;-69
2023/06/25 07:55:22;;;;;;;;;;;;;;;;;;5053534;28;20361;-70
2023/06/25 07:57:48;;;;;;;;;;;;;;;;;;5053270;28;19985;-69
2023/06/25 08:00:15;;;;;;;;;;;;;;;;;;5053772;28;19955;-70
2023/06/25 08:02:41;;;;;;;;;;;;;;;;;;5051710;28;20024;-70
2023/06/25 08:05:06;;;;;;;;;;;;;;;;;;5053250;28;20403;-70
2023/06/25 08:07:32;;;;;;;;;;;;;;;;;;5053139;28;19974;-68
2023/06/25 08:09:58;;;;;;;;;;;;;;;;;;5053722;28;19955;-71
2023/06/25 08:12:24;;;;;;;;;;;;;;;;;;5051617;28;19965;-70
2023/06/25 08:14:50;;;;;;;;;;;;;;;;;;5053926;28;20116;-70
2023/06/25 08:17:16;;;;;;;;;;;;;;;;;;5053059;28;19955;-71
2023/06/25 08:19:42;;;;;;;;;;;;;;;;;;5053022;28;20331;-70
2023/06/25 08:22:08;;;;;;;;;;;;;;;;;;5053042;28;20088;-71
2023/06/25 08:24:34;;;;;;;;;;;;;;;;;;5053251;28;20013;-70
2023/06/25 08:27:00;;;;;;;;;;;;;;;;;;5052883;28;20424;-70
2023/06/25 08:29:26;;;;;;;;;;;;;;;;;;5053235;28;19954;-71
2023/06/25 08:31:52;;;;;;;;;;;;;;;;;;5053389;28;20416;-69
2023/06/25 08:34:18;;;;;;;;;;;;;;;;;;5056500;28;19969;-70
2023/06/25 08:36:44;;;;;;;;;;;;;;;;;;5056528;28;19954;-70
2023/06/25 08:39:10;;;;;;;;;;;;;;;;;;5056470;28;19961;-70
2023/06/25 08:41:36;;;;;;;;;;;;;;;;;;5056665;28;19955;-70
2023/06/25 08:44:02;;;;;;;;;;;;;;;;;;5055919;28;19989;-70
2023/06/25 08:46:28;;;;;;;;;;;;;;;;;;5056256;28;19977;-70
2023/06/25 08:48:53;;;;;;;;;;;;;;;;;;5056870;28;20335;-71
2023/06/25 08:51:19;;;;;;;;;;;;;;;;;;5056240;28;19954;-70
2023/06/25 08:53:45;;;;;;;;;;;;;;;;;;5056722;28;19954;-70
2023/06/25 08:56:11;;;;;;;;;;;;;;;;;;5056103;28;19958;-71
2023/06/25 08:58:37;;;;;;;;;;;;;;;;;;5056066;28;19953;-71
2023/06/25 09:01:03;;;;;;;;;;;;;;;;;;5056276;28;20032;-71
2023/06/25 09:03:29;;;;;;;;;;;;;;;;;;5055988;28;19953;-71
2023/06/25 09:05:55;;;;;;;;;;;;;;;;;;5056164;28;20427;-70
2023/06/25 09:08:21;;;;;;;;;;;;;;;;;;5056184;28;20010;-70
2023/06/25 09:10:47;;;;;;;;;;;;;;;;;;5055864;28;20008;-70
2023/06/25 09:13:13;;;;;;;;;;;;;;;;;;5055784;28;20419;-71
2023/06/25 09:15:39;;;;;;;;;;;;;;;;;;5056319;28;19955;-70
2023/06/25 09:18:05;;;;;;;;;;;;;;;;;;5054439;28;20350;-71
2023/06/25 09:20:31;;;;;;;;;;;;;;;;;;5055967;28;19959;-70
2023/06/25 09:22:58;;;;;;;;;;;;;;;;;;5054170;28;19958;-69
2023/06/25 09:25:24;;;;;;;;;;;;;;;;;;5055806;28;19994;-69
2023/06/25 09:27:50;;;;;;;;;;;;;;;;;;5055522;28;20386;-70
2023/06/25 09:30:18;;;;;;;;;;;;;;;;;;5055528;28;20004;-71
2023/06/25 09:32:44;;;;;;;;;;;;;;;;;;5055996;28;19999;-70
2023/06/25 09:35:09;;;;;;;;;;;;;;;;;;5055651;28;20066;-70
2023/06/25 09:37:35;;;;;;;;;;;;;;;;;;5054073;28;20008;-70
2023/06/25 09:40:01;;;;;;;;;;;;;;;;;;5055289;28;19959;-70
2023/06/25 09:42:27;;;;;;;;;;;;;;;;;;5055071;28;19997;-70
2023/06/25 09:44:53;;;;;;;;;;;;;;;;;;5054994;28;20405;-70
2023/06/25 09:47:19;;;;;;;;;;;;;;;;;;5055389;28;20011;-70
2023/06/25 09:49:45;;;;;;;;;;;;;;;;;;5055099;28;19958;-69
2023/06/25 09:52:12;;;;;;;;;;;;;;;;;;5055370;28;19959;-70
2023/06/25 09:54:38;;;;;;;;;;;;;;;;;;5054977;28;19962;-69
2023/06/25 09:57:04;;;;;;;;;;;;;;;;;;5055272;28;19955;-69
2023/06/25 09:59:30;;;;;;;;;;;;;;;;;;5054931;28;19987;-70
2023/06/25 10:01:56;;;;;;;;;;;;;;;;;;5054872;28;19956;-69
2023/06/25 10:04:22;;;;;;;;;;;;;;;;;;5055118;28;19962;-70
2023/06/25 10:06:48;;;;;;;;;;;;;;;;;;5054680;28;20448;-70
2023/06/25 10:09:14;;;;;;;;;;;;;;;;;;5054798;28;19956;-69
2023/06/25 10:11:40;;;;;;;;;;;;;;;;;;5054990;28;19956;-70
2023/06/25 10:14:06;;;;;;;;;;;;;;;;;;5055187;28;20418;-69
2023/06/25 10:16:32;;;;;;;;;;;;;;;;;;5054895;28;19960;-70
2023/06/25 10:18:58;;;;;;;;;;;;;;;;;;5054569;28;20371;-69
2023/06/25 10:21:27;;;;;;;;;;;;;;;;;;5054523;28;20051;-69
2023/06/25 10:23:55;;;;;;;;;;;;;;;;;;5054480;28;19955;-68
2023/06/25 10:26:20;;;;;;;;;;;;;;;;;;5054657;28;19974;-69
2023/06/25 10:28:46;;;;;;;;;;;;;;;;;;5054401;28;20334;-69
2023/06/25 10:31:15;;;;;;;;;;;;;;;;;;5054387;28;19958;-69
2023/06/25 10:33:42;;;;;;;;;;;;;;;;;;5054855;28;19958;-69
2023/06/25 10:36:08;;;;;;;;;;;;;;;;;;5054544;28;19958;-69
2023/06/25 10:38:34;;;;;;;;;;;;;;;;;;5054817;28;20403;-69
2023/06/25 10:41:00;;;;;;;;;;;;;;;;;;5054197;28;20049;-70
2023/06/25 10:43:26;;;;;;;;;;;;;;;;;;5054034;28;19997;-68
2023/06/25 10:45:52;;;;;;;;;;;;;;;;;;5054534;28;19976;-69
2023/06/25 10:48:18;;;;;;;;;;;;;;;;;;5054046;28;19956;-69
2023/06/25 10:50:44;;;;;;;;;;;;;;;;;;5054574;28;19986;-69
2023/06/25 10:53:11;;;;;;;;;;;;;;;;;;5054223;28;19955;-69
2023/06/25 10:55:38;;;;;;;;;;;;;;;;;;5054097;28;19995;-69
2023/06/25 10:58:04;;;;;;;;;;;;;;;;;;5053877;28;19956;-69
2023/06/25 11:00:30;;;;;;;;;;;;;;;;;;5054099;28;19998;-70
2023/06/25 11:02:55;;;;;;;;;;;;;;;;;;5053786;28;19962;-70
2023/06/25 11:05:22;;;;;;;;;;;;;;;;;;5054068;28;19960;-70
2023/06/25 11:07:48;;;;;;;;;;;;;;;;;;5053664;28;19979;-69
2023/06/25 11:10:14;;;;;;;;;;;;;;;;;;5053763;28;19962;-70
2023/06/25 11:12:40;;;;;;;;;;;;;;;;;;5054261;28;20392;-70
2023/06/25 11:15:06;;;;;;;;;;;;;;;;;;5054469;28;19955;-69
2023/06/25 11:17:32;;;;;;;;;;;;;;;;;;5053669;28;19999;-69
2023/06/25 11:19:58;;;;;;;;;;;;;;;;;;5054171;28;20450;-70
2023/06/25 11:22:26;;;;;;;;;;;;;;;;;;5053597;28;19962;-69
2023/06/25 11:24:52;;;;;;;;;;;;;;;;;;5052286;28;20446;-70
2023/06/25 11:27:17;;;;;;;;;;;;;;;;;;5052124;28;20018;-69
2023/06/25 11:29:43;;;;;;;;;;;;;;;;;;5053518;28;20428;-70
2023/06/25 11:32:11;;;;;;;;;;;;;;;;;;5053491;28;19963;-70
2023/06/25 11:34:36;;;;;;;;;;;;;;;;;;5053354;28;19976;-69
2023/06/25 11:37:02;;;;;;;;;;;;;;;;;;5053765;28;20001;-69
2023/06/25 11:39:28;;;;;;;;;;;;;;;;;;5053449;28;19994;-69
2023/06/25 11:41:54;;;;;;;;;;;;;;;;;;5053178;28;19960;-70
2023/06/25 11:44:20;;;;;;;;;;;;;;;;;;5053703;28;19958;-69
2023/06/25 11:46:47;;;;;;;;;;;;;;;;;;5053553;28;20492;-69
2023/06/25 11:49:13;;;;;;;;;;;;;;;;;;5053919;28;20313;-69
2023/06/25 11:51:38;;;;;;;;;;;;;;;;;;5052035;28;19960;-70
2023/06/25 11:54:04;;;;;;;;;;;;;;;;;;5053531;28;20017;-69
2023/06/25 11:56:30;;;;;;;;;;;;;;;;;;5053261;28;19988;-70
2023/06/25 11:58:56;;;;;;;;;;;;;;;;;;5053567;28;20082;-70
2023/06/25 12:01:22;;;;;;;;;;;;;;;;;;5053242;28;19956;-70
2023/06/25 12:03:48;;;;;;;;;;;;;;;;;;5053222;28;19963;-69
2023/06/25 12:06:14;;;;;;;;;;;;;;;;;;5053396;28;19983;-69
2023/06/25 12:08:40;;;;;;;;;;;;;;;;;;5056833;28;20362;-69
2023/06/25 12:11:06;;;;;;;;;;;;;;;;;;5057552;28;19954;-70
2023/06/25 12:13:31;;;;;;;;;;;;;;;;;;5056969;28;20379;-69
2023/06/25 12:15:57;;;;;;;;;;;;;;;;;;5057975;28;19956;-69
2023/06/25 12:18:23;;;;;;;;;;;;;;;;;;5056893;28;20411;-69
2023/06/25 12:20:49;;;;;;;;;;;;;;;;;;5057067;28;19953;-70
2023/06/25 12:23:15;;;;;;;;;;;;;;;;;;5056760;28;19955;-69
2023/06/25 12:25:41;;;;;;;;;;;;;;;;;;5056917;28;20105;-70
2023/06/25 12:28:07;;;;;;;;;;;;;;;;;;5056717;28;19979;-69
2023/06/25 12:30:34;;;;;;;;;;;;;;;;;;5057219;28;19956;-69
2023/06/25 12:33:00;;;;;;;;;;;;;;;;;;5056950;28;19952;-70
2023/06/25 12:35:26;;;;;;;;;;;;;;;;;;5056510;28;19996;-69
2023/06/25 12:37:52;;;;;;;;;;;;;;;;;;5056740;28;20050;-70
2023/06/25 12:40:17;;;;;;;;;;;;;;;;;;5056476;28;19961;-70
2023/06/25 12:42:43;;;;;;;;;;;;;;;;;;5056555;28;20030;-70
2023/06/25 12:45:09;;;;;;;;;;;;;;;;;;5056649;28;20001;-69
2023/06/25 12:47:35;;;;;;;;;;;;;;;;;;5056599;28;20101;-68
2023/06/25 12:50:01;;;;;;;;;;;;;;;;;;5056872;28;19960;-69
2023/06/25 12:52:27;;;;;;;;;;;;;;;;;;5056247;28;20373;-69
2023/06/25 12:54:54;;;;;;;;;;;;;;;;;;5056209;28;19956;-69
2023/06/25 12:57:20;;;;;;;;;;;;;;;;;;5056195;28;20006;-69
2023/06/25 12:59:46;;;;;;;;;;;;;;;;;;5056126;28;19959;-70
2023/06/25 13:02:11;;;;;;;;;;;;;;;;;;5056302;28;20049;-69
2023/06/25 13:04:37;;;;;;;;;;;;;;;;;;5056310;28;19954;-69
2023/06/25 13:07:03;;;;;;;;;;;;;;;;;;5055963;28;19981;-69
2023/06/25 13:09:30;;;;;;;;;;;;;;;;;;5055942;28;20331;-70
2023/06/25 13:11:56;;;;;;;;;;;;;;;;;;5055903;28;19955;-70
2023/06/25 13:14:22;;;;;;;;;;;;;;;;;;5056311;28;19963;-70
2023/06/25 13:16:48;;;;;;;;;;;;;;;;;;5055750;28;19963;-69
2023/06/25 13:19:14;;;;;;;;;;;;;;;;;;5054575;28;20000;-70
2023/06/25 13:21:39;;;;;;;;;;;;;;;;;;5056281;28;20332;-69
2023/06/25 13:24:05;;;;;;;;;;;;;;;;;;5055686;28;19956;-68
2023/06/25 13:26:31;;;;;;;;;;;;;;;;;;5056079;28;20436;-70
2023/06/25 13:28:58;;;;;;;;;;;;;;;;;;5055595;28;19961;-69
2023/06/25 13:31:24;;;;;;;;;;;;;;;;;;5055889;28;20328;-69
2023/06/25 13:33:50;;;;;;;;;;;;;;;;;;5055680;28;19955;-69
2023/06/25 13:36:16;;;;;;;;;;;;;;;;;;5055406;28;20412;-69
2023/06/25 13:38:42;;;;;;;;;;;;;;;;;;5055383;28;20046;-69
2023/06/25 13:41:08;;;;;;;;;;;;;;;;;;5055327;28;19962;-69
2023/06/25 13:43:34;;;;;;;;;;;;;;;;;;5055195;28;20140;-69
2023/06/25 13:46:00;;;;;;;;;;;;;;;;;;5055683;28;20040;-69
2023/06/25 13:48:28;;;;;;;;;;;;;;;;;;5055210;28;20406;-70
2023/06/25 13:50:54;;;;;;;;;;;;;;;;;;5055131;28;20045;-69
2023/06/25 13:53:20;;;;;;;;;;;;;;;;;;5055396;28;19999;-69
2023/06/25 13:55:46;;;;;;;;;;;;;;;;;;5055028;28;19997;-70
2023/06/25 13:58:12;;;;;;;;;;;;;;;;;;5055015;28;19958;-69
2023/06/25 14:00:38;;;;;;;;;;;;;;;;;;5055509;28;20007;-69
2023/06/25 14:03:06;;;;;;;;;;;;;;;;;;5055191;28;19955;-69
2023/06/25 14:05:35;;;;;;;;;;;;;;;;;;5054864;28;20007;-70
2023/06/25 14:08:01;;;;;;;;;;;;;;;;;;5055417;28;19970;-69
2023/06/25 14:10:27;;;;;;;;;;;;;;;;;;5054767;28;19956;-69
2023/06/25 14:12:53;;;;;;;;;;;;;;;;;;5054777;28;19963;-70
2023/06/25 14:15:18;;;;;;;;;;;;;;;;;;5055512;28;19956;-69
2023/06/25 14:17:44;;;;;;;;;;;;;;;;;;5054620;28;20332;-69
2023/06/25 14:20:10;;;;;;;;;;;;;;;;;;5054839;28;20038;-69
2023/06/25 14:22:36;;;;;;;;;;;;;;;;;;5054507;28;20323;-69
2023/06/25 14:25:02;;;;;;;;;;;;;;;;;;5054494;28;19956;-69
2023/06/25 14:27:28;;;;;;;;;;;;;;;;;;5054656;28;19980;-69
2023/06/25 14:29:54;;;;;;;;;;;;;;;;;;5054110;28;20054;-70
2023/06/25 14:32:20;;;;;;;;;;;;;;;;;;5054917;28;19964;-70
2023/06/25 14:34:46;;;;;;;;;;;;;;;;;;5054250;28;19975;-70
2023/06/25 14:37:12;;;;;;;;;;;;;;;;;;5054277;28;19958;-70
2023/06/25 14:39:38;;;;;;;;;;;;;;;;;;5054495;28;19963;-69
2023/06/25 14:42:04;;;;;;;;;;;;;;;;;;5053991;28;19986;-70
2023/06/25 14:44:30;;;;;;;;;;;;;;;;;;5054450;28;20416;-70
2023/06/25 14:46:56;;;;;;;;;;;;;;;;;;5054616;28;19980;-69
2023/06/25 14:49:21;;;;;;;;;;;;;;;;;;5054059;28;19959;-69
2023/06/25 14:51:48;;;;;;;;;;;;;;;;;;5054012;28;20086;-70
2023/06/25 14:54:14;;;;;;;;;;;;;;;;;;5053977;28;19963;-69
2023/06/25 14:56:40;;;;;;;;;;;;;;;;;;5053918;28;20408;-70
2023/06/25 14:59:06;;;;;;;;;;;;;;;;;;5053924;28;19956;-69
2023/06/25 15:01:32;;;;;;;;;;;;;;;;;;5054142;28;19959;-69
2023/06/25 15:03:58;;;;;;;;;;;;;;;;;;5053801;28;19985;-69
2023/06/25 15:06:24;;;;;;;;;;;;;;;;;;5054016;28;19973;-70
2023/06/25 15:08:49;;;;;;;;;;;;;;;;;;5053786;28;20013;-69
2023/06/25 15:11:16;;;;;;;;;;;;;;;;;;5054024;28;20091;-69
2023/06/25 15:13:42;;;;;;;;;;;;;;;;;;5053668;28;20057;-69
2023/06/25 15:16:07;;;;;;;;;;;;;;;;;;5054234;28;20389;-69
2023/06/25 15:18:33;;;;;;;;;;;;;;;;;;5053684;28;20454;-70
2023/06/25 15:20:59;;;;;;;;;;;;;;;;;;5053616;28;19955;-69
2023/06/25 15:23:25;;;;;;;;;;;;;;;;;;5053900;28;20109;-69
2023/06/25 15:25:51;;;;;;;;;;;;;;;;;;5053763;28;19958;-70
2023/06/25 15:28:17;;;;;;;;;;;;;;;;;;5053604;28;19955;-70
2023/06/25 15:30:43;;;;;;;;;;;;;;;;;;5053544;28;19999;-70
2023/06/25 15:33:09;;;;;;;;;;;;;;;;;;5054054;28;20413;-70
2023/06/25 15:35:35;;;;;;;;;;;;;;;;;;5052180;28;19982;-70
2023/06/25 15:38:00;;;;;;;;;;;;;;;;;;5053425;28;19956;-69
2023/06/25 15:40:27;;;;;;;;;;;;;;;;;;5053434;28;20009;-68
2023/06/25 15:42:54;;;;;;;;;;;;;;;;;;5055779;28;19993;-69
2023/06/25 15:45:20;;;;;;;;;;;;;;;;;;5057798;28;19963;-69
2023/06/25 15:47:45;;;;;;;;;;;;;;;;;;5057371;28;19974;-69
2023/06/25 15:50:11;;;;;;;;;;;;;;;;;;5057947;28;20051;-69
2023/06/25 15:52:37;;;;;;;;;;;;;;;;;;5057383;28;19959;-69
2023/06/25 15:55:03;;;;;;;;;;;;;;;;;;5057910;28;20400;-69
2023/06/25 15:57:29;;;;;;;;;;;;;;;;;;5057324;28;19954;-69
2023/06/25 15:59:55;;;;;;;;;;;;;;;;;;5057264;28;19953;-69
2023/06/25 16:02:21;;;;;;;;;;;;;;;;;;5057244;28;19955;-70
2023/06/25 16:04:47;;;;;;;;;;;;;;;;;;5057201;28;20043;-69
2023/06/25 16:07:14;;;;;;;;;;;;;;;;;;5057356;28;19974;-69
2023/06/25 16:09:40;;;;;;;;;;;;;;;;;;5057094;28;20052;-68
2023/06/25 16:12:05;;;;;;;;;;;;;;;;;;5057037;28;20001;-69
2023/06/25 16:14:31;;;;;;;;;;;;;;;;;;5057527;28;19959;-70
2023/06/25 16:16:58;;;;;;;;;;;;;;;;;;5057417;28;19961;-69
2023/06/25 16:19:24;;;;;;;;;;;;;;;;;;5057133;28;19962;-69
2023/06/25 16:21:50;;;;;;;;;;;;;;;;;;5056903;28;19955;-70
2023/06/25 16:24:16;;;;;;;;;;;;;;;;;;5056858;28;20335;-69
2023/06/25 16:26:42;;;;;;;;;;;;;;;;;;5056730;28;19982;-69
2023/06/25 16:29:08;;;;;;;;;;;;;;;;;;5056984;28;19956;-69
2023/06/25 16:31:34;;;;;;;;;;;;;;;;;;5056689;28;20453;-69
2023/06/25 16:34:00;;;;;;;;;;;;;;;;;;5056736;28;20005;-70
2023/06/25 16:36:26;;;;;;;;;;;;;;;;;;5056601;28;20438;-69